sensor_id;sensor_type;location;lat;lon;timestamp;P1;durP1;ratioP1;P2;durP2;ratioP2
2646;SDS011;1333;50.958;6.770;2023-04-25T00:02:11;3.63;;;3.13;;
2646;SDS011;1333;50.958;6.770;2023-04-25T00:04:37;4.43;;;2.90;;
2646;SDS011;1333;50.958;6.770;2023-04-25T00:07:03;3.93;;;2.43;;
2646;SDS011;1333;50.958;6.770;2023-04-25T00:09:29;6.03;;;3.77;;
2646;SDS011;1333;50.958;6.770;2023-04-25T00:11:55;6.40;;;2.93;;
2646;SDS011;1333;50.958;6.770;2023-04-25T00:14:21;4.03;;;2.70;;
2646;SDS011;1333;50.958;6.770;2023-04-25T00:16:47;4.63;;;3.53;;
2646;SDS011;1333;50.958;6.770;2023-04-25T00:19:13;7.50;;;2.30;;
2646;SDS011;1333;50.958;6.770;2023-04-25T00:21:38;3.63;;;2.80;;
2646;SDS011;1333;50.958;6.770;2023-04-25T00:24:06;4.60;;;2.40;;
2646;SDS011;1333;50.958;6.770;2023-04-25T00:26:33;4.50;;;3.20;;
2646;SDS011;1333;50.958;6.770;2023-04-25T00:29:00;5.93;;;2.60;;
2646;SDS011;1333;50.958;6.770;2023-04-25T00:31:25;4.63;;;2.97;;
2646;SDS011;1333;50.958;6.770;2023-04-25T00:33:51;7.67;;;3.10;;
2646;SDS011;1333;50.958;6.770;2023-04-25T00:36:17;13.20;;;3.10;;
2646;SDS011;1333;50.958;6.770;2023-04-25T00:38:43;7.50;;;2.83;;
2646;SDS011;1333;50.958;6.770;2023-04-25T00:41:09;6.10;;;3.43;;
2646;SDS011;1333;50.958;6.770;2023-04-25T00:43:35;4.70;;;3.00;;
2646;SDS011;1333;50.958;6.770;2023-04-25T00:46:02;3.97;;;3.00;;
2646;SDS011;1333;50.958;6.770;2023-04-25T00:48:27;4.30;;;3.50;;
2646;SDS011;1333;50.958;6.770;2023-04-25T00:50:54;9.93;;;2.90;;
2646;SDS011;1333;50.958;6.770;2023-04-25T00:53:22;10.23;;;3.07;;
2646;SDS011;1333;50.958;6.770;2023-04-25T00:55:49;5.80;;;2.63;;
2646;SDS011;1333;50.958;6.770;2023-04-25T00:58:16;9.77;;;2.60;;
2646;SDS011;1333;50.958;6.770;2023-04-25T01:00:43;5.73;;;3.47;;
2646;SDS011;1333;50.958;6.770;2023-04-25T01:03:10;5.97;;;2.90;;
2646;SDS011;1333;50.958;6.770;2023-04-25T01:05:36;8.00;;;3.20;;
2646;SDS011;1333;50.958;6.770;2023-04-25T01:08:02;5.20;;;3.10;;
2646;SDS011;1333;50.958;6.770;2023-04-25T01:10:28;9.47;;;3.77;;
2646;SDS011;1333;50.958;6.770;2023-04-25T01:12:53;15.00;;;3.40;;
2646;SDS011;1333;50.958;6.770;2023-04-25T01:15:19;5.73;;;3.50;;
2646;SDS011;1333;50.958;6.770;2023-04-25T01:17:45;6.87;;;3.40;;
2646;SDS011;1333;50.958;6.770;2023-04-25T01:20:11;8.30;;;4.10;;
2646;SDS011;1333;50.958;6.770;2023-04-25T01:22:38;12.40;;;4.03;;
2646;SDS011;1333;50.958;6.770;2023-04-25T01:25:04;11.50;;;3.57;;
2646;SDS011;1333;50.958;6.770;2023-04-25T01:27:31;6.13;;;2.57;;
2646;SDS011;1333;50.958;6.770;2023-04-25T01:29:57;4.67;;;3.20;;
2646;SDS011;1333;50.958;6.770;2023-04-25T01:32:24;7.87;;;3.67;;
2646;SDS011;1333;50.958;6.770;2023-04-25T01:34:51;7.43;;;3.20;;
2646;SDS011;1333;50.958;6.770;2023-04-25T01:37:17;8.17;;;3.30;;
2646;SDS011;1333;50.958;6.770;2023-04-25T01:39:42;6.80;;;3.70;;
2646;SDS011;1333;50.958;6.770;2023-04-25T01:42:09;5.47;;;3.53;;
2646;SDS011;1333;50.958;6.770;2023-04-25T01:44:34;6.20;;;3.03;;
2646;SDS011;1333;50.958;6.770;2023-04-25T01:47:00;11.27;;;3.53;;
2646;SDS011;1333;50.958;6.770;2023-04-25T01:49:25;6.57;;;3.70;;
2646;SDS011;1333;50.958;6.770;2023-04-25T01:51:51;7.53;;;3.30;;
2646;SDS011;1333;50.958;6.770;2023-04-25T01:54:17;5.70;;;2.90;;
2646;SDS011;1333;50.958;6.770;2023-04-25T01:56:43;7.83;;;3.60;;
2646;SDS011;1333;50.958;6.770;2023-04-25T01:59:15;5.60;;;3.53;;
2646;SDS011;1333;50.958;6.770;2023-04-25T02:01:40;5.93;;;3.13;;
2646;SDS011;1333;50.958;6.770;2023-04-25T02:04:06;6.17;;;3.83;;
2646;SDS011;1333;50.958;6.770;2023-04-25T02:06:31;4.43;;;3.23;;
2646;SDS011;1333;50.958;6.770;2023-04-25T02:08:57;7.53;;;3.10;;
2646;SDS011;1333;50.958;6.770;2023-04-25T02:11:22;8.40;;;3.77;;
2646;SDS011;1333;50.958;6.770;2023-04-25T02:13:48;6.60;;;4.17;;
2646;SDS011;1333;50.958;6.770;2023-04-25T02:16:13;8.53;;;3.77;;
2646;SDS011;1333;50.958;6.770;2023-04-25T02:18:39;9.93;;;3.80;;
2646;SDS011;1333;50.958;6.770;2023-04-25T02:21:05;11.23;;;4.27;;
2646;SDS011;1333;50.958;6.770;2023-04-25T02:23:30;7.70;;;3.77;;
2646;SDS011;1333;50.958;6.770;2023-04-25T02:25:56;6.50;;;3.77;;
2646;SDS011;1333;50.958;6.770;2023-04-25T02:28:23;3.47;;;2.73;;
2646;SDS011;1333;50.958;6.770;2023-04-25T02:30:49;3.50;;;2.50;;
2646;SDS011;1333;50.958;6.770;2023-04-25T02:33:14;10.23;;;4.00;;
2646;SDS011;1333;50.958;6.770;2023-04-25T02:35:41;11.50;;;3.70;;
2646;SDS011;1333;50.958;6.770;2023-04-25T02:38:07;7.37;;;3.10;;
2646;SDS011;1333;50.958;6.770;2023-04-25T02:40:33;9.70;;;3.40;;
2646;SDS011;1333;50.958;6.770;2023-04-25T02:42:58;7.40;;;3.13;;
2646;SDS011;1333;50.958;6.770;2023-04-25T02:45:24;3.70;;;2.70;;
2646;SDS011;1333;50.958;6.770;2023-04-25T02:47:49;9.50;;;3.47;;
2646;SDS011;1333;50.958;6.770;2023-04-25T02:50:15;4.63;;;3.40;;
2646;SDS011;1333;50.958;6.770;2023-04-25T02:52:40;5.70;;;3.33;;
2646;SDS011;1333;50.958;6.770;2023-04-25T02:55:06;6.87;;;3.80;;
2646;SDS011;1333;50.958;6.770;2023-04-25T02:57:31;5.03;;;3.10;;
2646;SDS011;1333;50.958;6.770;2023-04-25T02:59:57;7.00;;;2.80;;
2646;SDS011;1333;50.958;6.770;2023-04-25T03:02:22;10.73;;;3.60;;
2646;SDS011;1333;50.958;6.770;2023-04-25T03:04:48;12.07;;;4.07;;
2646;SDS011;1333;50.958;6.770;2023-04-25T03:07:13;9.13;;;3.93;;
2646;SDS011;1333;50.958;6.770;2023-04-25T03:09:39;6.50;;;3.33;;
2646;SDS011;1333;50.958;6.770;2023-04-25T03:12:05;6.70;;;3.70;;
2646;SDS011;1333;50.958;6.770;2023-04-25T03:14:30;7.23;;;3.70;;
2646;SDS011;1333;50.958;6.770;2023-04-25T03:16:56;7.53;;;3.10;;
2646;SDS011;1333;50.958;6.770;2023-04-25T03:19:21;8.43;;;3.70;;
2646;SDS011;1333;50.958;6.770;2023-04-25T03:21:47;10.67;;;3.77;;
2646;SDS011;1333;50.958;6.770;2023-04-25T03:24:13;3.60;;;2.60;;
2646;SDS011;1333;50.958;6.770;2023-04-25T03:26:38;5.60;;;3.10;;
2646;SDS011;1333;50.958;6.770;2023-04-25T03:29:04;2.60;;;2.33;;
2646;SDS011;1333;50.958;6.770;2023-04-25T03:31:29;5.20;;;3.07;;
2646;SDS011;1333;50.958;6.770;2023-04-25T03:33:55;7.63;;;3.20;;
2646;SDS011;1333;50.958;6.770;2023-04-25T03:36:21;6.53;;;3.73;;
2646;SDS011;1333;50.958;6.770;2023-04-25T03:38:46;9.17;;;3.27;;
2646;SDS011;1333;50.958;6.770;2023-04-25T03:41:13;5.50;;;3.33;;
2646;SDS011;1333;50.958;6.770;2023-04-25T03:43:38;8.53;;;3.87;;
2646;SDS011;1333;50.958;6.770;2023-04-25T03:46:04;6.43;;;2.90;;
2646;SDS011;1333;50.958;6.770;2023-04-25T03:48:29;6.30;;;3.37;;
2646;SDS011;1333;50.958;6.770;2023-04-25T03:50:55;5.90;;;3.97;;
2646;SDS011;1333;50.958;6.770;2023-04-25T03:53:21;6.43;;;3.77;;
2646;SDS011;1333;50.958;6.770;2023-04-25T03:55:46;5.40;;;3.07;;
2646;SDS011;1333;50.958;6.770;2023-04-25T03:58:12;3.77;;;2.70;;
2646;SDS011;1333;50.958;6.770;2023-04-25T04:00:37;4.33;;;3.23;;
2646;SDS011;1333;50.958;6.770;2023-04-25T04:03:03;5.57;;;3.87;;
2646;SDS011;1333;50.958;6.770;2023-04-25T04:05:28;6.57;;;3.90;;
2646;SDS011;1333;50.958;6.770;2023-04-25T04:07:54;11.80;;;3.70;;
2646;SDS011;1333;50.958;6.770;2023-04-25T04:10:20;7.80;;;4.30;;
2646;SDS011;1333;50.958;6.770;2023-04-25T04:12:45;11.60;;;3.40;;
2646;SDS011;1333;50.958;6.770;2023-04-25T04:15:11;9.90;;;2.90;;
2646;SDS011;1333;50.958;6.770;2023-04-25T04:17:37;9.33;;;3.57;;
2646;SDS011;1333;50.958;6.770;2023-04-25T04:20:03;3.97;;;3.60;;
2646;SDS011;1333;50.958;6.770;2023-04-25T04:22:29;6.17;;;2.93;;
2646;SDS011;1333;50.958;6.770;2023-04-25T04:24:54;6.87;;;4.00;;
2646;SDS011;1333;50.958;6.770;2023-04-25T04:27:22;5.73;;;2.97;;
2646;SDS011;1333;50.958;6.770;2023-04-25T04:29:48;6.83;;;3.33;;
2646;SDS011;1333;50.958;6.770;2023-04-25T04:32:14;9.73;;;4.27;;
2646;SDS011;1333;50.958;6.770;2023-04-25T04:34:40;4.07;;;2.97;;
2646;SDS011;1333;50.958;6.770;2023-04-25T04:37:06;7.20;;;2.60;;
2646;SDS011;1333;50.958;6.770;2023-04-25T04:39:35;6.07;;;3.00;;
2646;SDS011;1333;50.958;6.770;2023-04-25T04:42:01;5.67;;;3.27;;
2646;SDS011;1333;50.958;6.770;2023-04-25T04:44:28;5.87;;;3.17;;
2646;SDS011;1333;50.958;6.770;2023-04-25T04:46:54;7.10;;;3.47;;
2646;SDS011;1333;50.958;6.770;2023-04-25T04:49:20;3.10;;;2.17;;
2646;SDS011;1333;50.958;6.770;2023-04-25T04:51:46;4.67;;;3.00;;
2646;SDS011;1333;50.958;6.770;2023-04-25T04:54:12;4.20;;;2.77;;
2646;SDS011;1333;50.958;6.770;2023-04-25T04:56:37;4.90;;;2.87;;
2646;SDS011;1333;50.958;6.770;2023-04-25T04:59:03;9.03;;;3.87;;
2646;SDS011;1333;50.958;6.770;2023-04-25T05:01:28;12.80;;;3.90;;
2646;SDS011;1333;50.958;6.770;2023-04-25T05:03:55;14.50;;;3.87;;
2646;SDS011;1333;50.958;6.770;2023-04-25T05:06:25;5.20;;;2.70;;
2646;SDS011;1333;50.958;6.770;2023-04-25T05:08:51;5.73;;;3.40;;
2646;SDS011;1333;50.958;6.770;2023-04-25T05:11:17;10.13;;;6.77;;
2646;SDS011;1333;50.958;6.770;2023-04-25T05:13:43;6.40;;;3.70;;
2646;SDS011;1333;50.958;6.770;2023-04-25T05:16:10;10.30;;;4.17;;
2646;SDS011;1333;50.958;6.770;2023-04-25T05:18:36;5.13;;;4.23;;
2646;SDS011;1333;50.958;6.770;2023-04-25T05:21:02;6.50;;;3.73;;
2646;SDS011;1333;50.958;6.770;2023-04-25T05:23:27;6.13;;;4.47;;
2646;SDS011;1333;50.958;6.770;2023-04-25T05:25:54;7.07;;;4.30;;
2646;SDS011;1333;50.958;6.770;2023-04-25T05:28:20;7.80;;;3.97;;
2646;SDS011;1333;50.958;6.770;2023-04-25T05:30:46;8.33;;;4.10;;
2646;SDS011;1333;50.958;6.770;2023-04-25T05:33:11;10.93;;;3.97;;
2646;SDS011;1333;50.958;6.770;2023-04-25T05:35:37;8.30;;;3.63;;
2646;SDS011;1333;50.958;6.770;2023-04-25T05:38:02;8.40;;;3.80;;
2646;SDS011;1333;50.958;6.770;2023-04-25T05:40:28;5.37;;;3.90;;
2646;SDS011;1333;50.958;6.770;2023-04-25T05:42:53;9.03;;;3.57;;
2646;SDS011;1333;50.958;6.770;2023-04-25T05:45:19;7.40;;;3.37;;
2646;SDS011;1333;50.958;6.770;2023-04-25T05:47:44;8.10;;;4.00;;
2646;SDS011;1333;50.958;6.770;2023-04-25T05:50:10;6.90;;;3.57;;
2646;SDS011;1333;50.958;6.770;2023-04-25T05:52:36;8.93;;;3.50;;
2646;SDS011;1333;50.958;6.770;2023-04-25T05:55:01;3.63;;;2.63;;
2646;SDS011;1333;50.958;6.770;2023-04-25T05:57:27;8.00;;;3.50;;
2646;SDS011;1333;50.958;6.770;2023-04-25T05:59:53;7.20;;;3.07;;
2646;SDS011;1333;50.958;6.770;2023-04-25T06:02:19;3.90;;;3.20;;
2646;SDS011;1333;50.958;6.770;2023-04-25T06:04:45;12.13;;;3.57;;
2646;SDS011;1333;50.958;6.770;2023-04-25T06:07:11;3.60;;;2.03;;
2646;SDS011;1333;50.958;6.770;2023-04-25T06:09:37;6.60;;;3.23;;
2646;SDS011;1333;50.958;6.770;2023-04-25T06:12:04;5.17;;;2.90;;
2646;SDS011;1333;50.958;6.770;2023-04-25T06:14:30;8.57;;;2.70;;
2646;SDS011;1333;50.958;6.770;2023-04-25T06:16:56;8.10;;;2.97;;
2646;SDS011;1333;50.958;6.770;2023-04-25T06:19:21;6.80;;;2.97;;
2646;SDS011;1333;50.958;6.770;2023-04-25T06:21:47;9.83;;;2.43;;
2646;SDS011;1333;50.958;6.770;2023-04-25T06:24:12;5.70;;;2.63;;
2646;SDS011;1333;50.958;6.770;2023-04-25T06:26:38;4.30;;;2.50;;
2646;SDS011;1333;50.958;6.770;2023-04-25T06:29:03;5.70;;;2.43;;
2646;SDS011;1333;50.958;6.770;2023-04-25T06:31:29;10.63;;;2.77;;
2646;SDS011;1333;50.958;6.770;2023-04-25T06:33:57;6.90;;;3.37;;
2646;SDS011;1333;50.958;6.770;2023-04-25T06:36:23;4.83;;;2.50;;
2646;SDS011;1333;50.958;6.770;2023-04-25T06:38:53;11.03;;;3.80;;
2646;SDS011;1333;50.958;6.770;2023-04-25T06:41:19;9.63;;;2.93;;
2646;SDS011;1333;50.958;6.770;2023-04-25T06:43:44;6.17;;;2.47;;
2646;SDS011;1333;50.958;6.770;2023-04-25T06:46:10;6.10;;;2.77;;
2646;SDS011;1333;50.958;6.770;2023-04-25T06:48:36;6.03;;;2.67;;
2646;SDS011;1333;50.958;6.770;2023-04-25T06:51:01;12.50;;;3.67;;
2646;SDS011;1333;50.958;6.770;2023-04-25T06:53:27;5.20;;;2.37;;
2646;SDS011;1333;50.958;6.770;2023-04-25T06:55:53;4.77;;;2.60;;
2646;SDS011;1333;50.958;6.770;2023-04-25T06:58:18;6.10;;;2.60;;
2646;SDS011;1333;50.958;6.770;2023-04-25T07:00:44;4.80;;;2.27;;
2646;SDS011;1333;50.958;6.770;2023-04-25T07:03:09;7.60;;;2.60;;
2646;SDS011;1333;50.958;6.770;2023-04-25T07:05:35;3.10;;;2.10;;
2646;SDS011;1333;50.958;6.770;2023-04-25T07:08:00;2.90;;;1.60;;
2646;SDS011;1333;50.958;6.770;2023-04-25T07:10:26;5.53;;;2.47;;
2646;SDS011;1333;50.958;6.770;2023-04-25T07:12:52;6.93;;;2.27;;
2646;SDS011;1333;50.958;6.770;2023-04-25T07:15:17;6.50;;;3.37;;
2646;SDS011;1333;50.958;6.770;2023-04-25T07:17:43;6.00;;;2.83;;
2646;SDS011;1333;50.958;6.770;2023-04-25T07:20:09;6.47;;;2.40;;
2646;SDS011;1333;50.958;6.770;2023-04-25T07:22:35;13.30;;;3.13;;
2646;SDS011;1333;50.958;6.770;2023-04-25T07:25:00;10.00;;;2.47;;
2646;SDS011;1333;50.958;6.770;2023-04-25T07:27:26;3.00;;;2.40;;
2646;SDS011;1333;50.958;6.770;2023-04-25T07:29:52;5.97;;;3.60;;
2646;SDS011;1333;50.958;6.770;2023-04-25T07:32:17;5.03;;;1.93;;
2646;SDS011;1333;50.958;6.770;2023-04-25T07:34:43;3.30;;;2.03;;
2646;SDS011;1333;50.958;6.770;2023-04-25T07:37:09;7.17;;;2.60;;
2646;SDS011;1333;50.958;6.770;2023-04-25T07:39:34;4.23;;;2.47;;
2646;SDS011;1333;50.958;6.770;2023-04-25T07:42:00;3.50;;;2.07;;
2646;SDS011;1333;50.958;6.770;2023-04-25T07:44:27;6.63;;;2.80;;
2646;SDS011;1333;50.958;6.770;2023-04-25T07:46:52;5.73;;;2.60;;
2646;SDS011;1333;50.958;6.770;2023-04-25T07:49:18;5.93;;;2.47;;
2646;SDS011;1333;50.958;6.770;2023-04-25T07:51:43;6.43;;;2.13;;
2646;SDS011;1333;50.958;6.770;2023-04-25T07:54:09;3.63;;;2.17;;
2646;SDS011;1333;50.958;6.770;2023-04-25T07:56:37;3.47;;;2.53;;
2646;SDS011;1333;50.958;6.770;2023-04-25T07:59:02;6.03;;;3.50;;
2646;SDS011;1333;50.958;6.770;2023-04-25T08:01:28;8.93;;;2.73;;
2646;SDS011;1333;50.958;6.770;2023-04-25T08:03:53;7.00;;;1.80;;
2646;SDS011;1333;50.958;6.770;2023-04-25T08:06:19;5.10;;;1.80;;
2646;SDS011;1333;50.958;6.770;2023-04-25T08:08:45;4.20;;;2.10;;
2646;SDS011;1333;50.958;6.770;2023-04-25T08:11:10;2.33;;;1.87;;
2646;SDS011;1333;50.958;6.770;2023-04-25T08:13:36;12.60;;;3.23;;
2646;SDS011;1333;50.958;6.770;2023-04-25T08:16:01;4.27;;;2.33;;
2646;SDS011;1333;50.958;6.770;2023-04-25T08:18:27;3.70;;;2.50;;
2646;SDS011;1333;50.958;6.770;2023-04-25T08:20:53;5.63;;;2.47;;
2646;SDS011;1333;50.958;6.770;2023-04-25T08:23:18;3.50;;;2.07;;
2646;SDS011;1333;50.958;6.770;2023-04-25T08:25:44;5.73;;;1.87;;
2646;SDS011;1333;50.958;6.770;2023-04-25T08:28:09;4.70;;;1.90;;
2646;SDS011;1333;50.958;6.770;2023-04-25T08:30:35;3.77;;;1.80;;
2646;SDS011;1333;50.958;6.770;2023-04-25T08:33:01;7.27;;;1.73;;
2646;SDS011;1333;50.958;6.770;2023-04-25T08:35:26;1.90;;;1.37;;
2646;SDS011;1333;50.958;6.770;2023-04-25T08:37:52;1.93;;;1.60;;
2646;SDS011;1333;50.958;6.770;2023-04-25T08:40:17;4.13;;;1.73;;
2646;SDS011;1333;50.958;6.770;2023-04-25T08:42:50;3.33;;;1.50;;
2646;SDS011;1333;50.958;6.770;2023-04-25T08:45:18;4.90;;;1.80;;
2646;SDS011;1333;50.958;6.770;2023-04-25T08:47:43;5.23;;;2.10;;
2646;SDS011;1333;50.958;6.770;2023-04-25T08:50:10;5.83;;;1.80;;
2646;SDS011;1333;50.958;6.770;2023-04-25T08:52:36;2.30;;;1.57;;
2646;SDS011;1333;50.958;6.770;2023-04-25T08:55:08;2.40;;;1.20;;
2646;SDS011;1333;50.958;6.770;2023-04-25T08:57:36;7.40;;;1.90;;
2646;SDS011;1333;50.958;6.770;2023-04-25T09:00:03;3.20;;;2.00;;
2646;SDS011;1333;50.958;6.770;2023-04-25T09:02:29;2.50;;;1.43;;
2646;SDS011;1333;50.958;6.770;2023-04-25T09:04:55;3.17;;;1.90;;
2646;SDS011;1333;50.958;6.770;2023-04-25T09:07:21;1.57;;;1.47;;
2646;SDS011;1333;50.958;6.770;2023-04-25T09:09:46;4.93;;;1.97;;
2646;SDS011;1333;50.958;6.770;2023-04-25T09:12:12;5.77;;;2.07;;
2646;SDS011;1333;50.958;6.770;2023-04-25T09:14:38;2.93;;;1.83;;
2646;SDS011;1333;50.958;6.770;2023-04-25T09:17:04;5.20;;;1.77;;
2646;SDS011;1333;50.958;6.770;2023-04-25T09:19:33;5.20;;;1.90;;
2646;SDS011;1333;50.958;6.770;2023-04-25T09:22:04;3.53;;;1.37;;
2646;SDS011;1333;50.958;6.770;2023-04-25T09:24:38;2.90;;;1.80;;
2646;SDS011;1333;50.958;6.770;2023-04-25T09:27:11;6.37;;;2.43;;
2646;SDS011;1333;50.958;6.770;2023-04-25T09:29:42;5.23;;;2.00;;
2646;SDS011;1333;50.958;6.770;2023-04-25T09:32:21;5.10;;;2.57;;
2646;SDS011;1333;50.958;6.770;2023-04-25T09:34:49;2.90;;;1.80;;
2646;SDS011;1333;50.958;6.770;2023-04-25T09:37:23;3.87;;;1.57;;
2646;SDS011;1333;50.958;6.770;2023-04-25T09:39:52;6.57;;;2.30;;
2646;SDS011;1333;50.958;6.770;2023-04-25T09:42:23;1.83;;;1.73;;
2646;SDS011;1333;50.958;6.770;2023-04-25T09:44:51;2.93;;;1.63;;
2646;SDS011;1333;50.958;6.770;2023-04-25T09:47:22;2.07;;;1.17;;
2646;SDS011;1333;50.958;6.770;2023-04-25T09:49:49;3.53;;;1.87;;
2646;SDS011;1333;50.958;6.770;2023-04-25T09:52:16;4.30;;;1.70;;
2646;SDS011;1333;50.958;6.770;2023-04-25T09:54:47;4.60;;;2.20;;
2646;SDS011;1333;50.958;6.770;2023-04-25T09:59:46;3.07;;;1.60;;
2646;SDS011;1333;50.958;6.770;2023-04-25T10:02:21;4.10;;;1.77;;
2646;SDS011;1333;50.958;6.770;2023-04-25T10:04:52;2.70;;;2.20;;
2646;SDS011;1333;50.958;6.770;2023-04-25T10:07:20;3.63;;;1.40;;
2646;SDS011;1333;50.958;6.770;2023-04-25T10:09:50;5.00;;;2.40;;
2646;SDS011;1333;50.958;6.770;2023-04-25T10:12:30;3.80;;;1.93;;
2646;SDS011;1333;50.958;6.770;2023-04-25T10:14:57;3.67;;;2.13;;
2646;SDS011;1333;50.958;6.770;2023-04-25T10:17:23;2.20;;;1.83;;
2646;SDS011;1333;50.958;6.770;2023-04-25T10:19:51;2.87;;;1.63;;
2646;SDS011;1333;50.958;6.770;2023-04-25T10:22:20;4.87;;;2.40;;
2646;SDS011;1333;50.958;6.770;2023-04-25T10:24:53;3.53;;;1.83;;
2646;SDS011;1333;50.958;6.770;2023-04-25T10:27:21;1.90;;;1.60;;
2646;SDS011;1333;50.958;6.770;2023-04-25T10:29:59;2.53;;;1.70;;
2646;SDS011;1333;50.958;6.770;2023-04-25T10:32:27;5.00;;;2.30;;
2646;SDS011;1333;50.958;6.770;2023-04-25T10:34:52;5.57;;;1.67;;
2646;SDS011;1333;50.958;6.770;2023-04-25T10:37:19;3.83;;;1.83;;
2646;SDS011;1333;50.958;6.770;2023-04-25T10:39:44;2.70;;;1.80;;
2646;SDS011;1333;50.958;6.770;2023-04-25T10:42:11;2.70;;;1.77;;
2646;SDS011;1333;50.958;6.770;2023-04-25T10:44:37;5.87;;;1.57;;
2646;SDS011;1333;50.958;6.770;2023-04-25T10:47:06;2.90;;;1.90;;
2646;SDS011;1333;50.958;6.770;2023-04-25T10:49:34;3.30;;;1.67;;
2646;SDS011;1333;50.958;6.770;2023-04-25T10:52:10;6.30;;;1.80;;
2646;SDS011;1333;50.958;6.770;2023-04-25T10:54:51;5.40;;;1.67;;
2646;SDS011;1333;50.958;6.770;2023-04-25T10:57:27;3.40;;;1.50;;
2646;SDS011;1333;50.958;6.770;2023-04-25T11:05:10;2.87;;;1.20;;
2646;SDS011;1333;50.958;6.770;2023-04-25T11:07:52;4.43;;;1.53;;
2646;SDS011;1333;50.958;6.770;2023-04-25T11:10:21;5.87;;;1.63;;
2646;SDS011;1333;50.958;6.770;2023-04-25T11:12:50;1.30;;;1.13;;
2646;SDS011;1333;50.958;6.770;2023-04-25T11:15:16;5.77;;;1.47;;
2646;SDS011;1333;50.958;6.770;2023-04-25T11:17:41;2.00;;;1.27;;
2646;SDS011;1333;50.958;6.770;2023-04-25T11:20:08;5.20;;;1.97;;
2646;SDS011;1333;50.958;6.770;2023-04-25T11:22:36;3.97;;;1.43;;
2646;SDS011;1333;50.958;6.770;2023-04-25T11:25:04;4.60;;;1.53;;
2646;SDS011;1333;50.958;6.770;2023-04-25T11:27:31;5.13;;;1.77;;
2646;SDS011;1333;50.958;6.770;2023-04-25T11:29:56;4.50;;;2.10;;
2646;SDS011;1333;50.958;6.770;2023-04-25T11:32:22;2.83;;;1.43;;
2646;SDS011;1333;50.958;6.770;2023-04-25T11:34:48;4.00;;;1.70;;
2646;SDS011;1333;50.958;6.770;2023-04-25T11:37:14;3.00;;;1.60;;
2646;SDS011;1333;50.958;6.770;2023-04-25T11:39:43;3.43;;;1.70;;
2646;SDS011;1333;50.958;6.770;2023-04-25T11:42:11;4.13;;;1.70;;
2646;SDS011;1333;50.958;6.770;2023-04-25T11:44:37;7.70;;;1.83;;
2646;SDS011;1333;50.958;6.770;2023-04-25T11:47:04;3.00;;;1.33;;
2646;SDS011;1333;50.958;6.770;2023-04-25T11:49:30;2.70;;;1.73;;
2646;SDS011;1333;50.958;6.770;2023-04-25T11:51:57;2.97;;;1.30;;
2646;SDS011;1333;50.958;6.770;2023-04-25T11:54:22;1.93;;;1.70;;
2646;SDS011;1333;50.958;6.770;2023-04-25T11:56:48;2.53;;;1.43;;
2646;SDS011;1333;50.958;6.770;2023-04-25T11:59:13;1.93;;;1.57;;
2646;SDS011;1333;50.958;6.770;2023-04-25T12:01:40;3.30;;;1.70;;
2646;SDS011;1333;50.958;6.770;2023-04-25T12:06:47;2.10;;;1.60;;
2646;SDS011;1333;50.958;6.770;2023-04-25T12:09:17;4.27;;;2.00;;
2646;SDS011;1333;50.958;6.770;2023-04-25T12:11:45;3.10;;;2.37;;
2646;SDS011;1333;50.958;6.770;2023-04-25T12:14:12;2.53;;;2.30;;
2646;SDS011;1333;50.958;6.770;2023-04-25T12:16:48;2.03;;;1.73;;
2646;SDS011;1333;50.958;6.770;2023-04-25T12:19:16;5.80;;;2.23;;
2646;SDS011;1333;50.958;6.770;2023-04-25T12:21:42;3.77;;;1.80;;
2646;SDS011;1333;50.958;6.770;2023-04-25T12:24:16;4.70;;;2.00;;
2646;SDS011;1333;50.958;6.770;2023-04-25T12:26:51;1.83;;;1.50;;
2646;SDS011;1333;50.958;6.770;2023-04-25T12:29:25;2.87;;;1.57;;
2646;SDS011;1333;50.958;6.770;2023-04-25T12:31:52;2.10;;;1.67;;
2646;SDS011;1333;50.958;6.770;2023-04-25T12:34:19;2.97;;;1.67;;
2646;SDS011;1333;50.958;6.770;2023-04-25T12:36:44;3.57;;;1.67;;
2646;SDS011;1333;50.958;6.770;2023-04-25T12:39:17;3.00;;;1.33;;
2646;SDS011;1333;50.958;6.770;2023-04-25T12:41:44;5.43;;;1.67;;
2646;SDS011;1333;50.958;6.770;2023-04-25T12:44:10;3.00;;;1.40;;
2646;SDS011;1333;50.958;6.770;2023-04-25T12:46:37;5.00;;;1.73;;
2646;SDS011;1333;50.958;6.770;2023-04-25T12:49:03;5.47;;;1.20;;
2646;SDS011;1333;50.958;6.770;2023-04-25T12:51:29;1.50;;;1.37;;
2646;SDS011;1333;50.958;6.770;2023-04-25T12:53:57;8.93;;;1.93;;
2646;SDS011;1333;50.958;6.770;2023-04-25T12:56:23;3.20;;;1.43;;
2646;SDS011;1333;50.958;6.770;2023-04-25T12:58:49;1.87;;;1.63;;
2646;SDS011;1333;50.958;6.770;2023-04-25T13:01:15;3.47;;;1.60;;
2646;SDS011;1333;50.958;6.770;2023-04-25T13:03:40;2.67;;;1.30;;
2646;SDS011;1333;50.958;6.770;2023-04-25T13:06:06;2.43;;;1.20;;
2646;SDS011;1333;50.958;6.770;2023-04-25T13:08:32;2.70;;;1.50;;
2646;SDS011;1333;50.958;6.770;2023-04-25T13:10:58;4.80;;;2.13;;
2646;SDS011;1333;50.958;6.770;2023-04-25T13:13:23;1.87;;;1.30;;
2646;SDS011;1333;50.958;6.770;2023-04-25T13:15:49;3.80;;;1.50;;
2646;SDS011;1333;50.958;6.770;2023-04-25T13:18:14;1.73;;;1.37;;
2646;SDS011;1333;50.958;6.770;2023-04-25T13:20:40;2.30;;;1.53;;
2646;SDS011;1333;50.958;6.770;2023-04-25T13:23:06;1.83;;;1.30;;
2646;SDS011;1333;50.958;6.770;2023-04-25T13:25:31;5.30;;;1.43;;
2646;SDS011;1333;50.958;6.770;2023-04-25T13:27:57;3.40;;;1.60;;
2646;SDS011;1333;50.958;6.770;2023-04-25T13:30:22;3.17;;;1.57;;
2646;SDS011;1333;50.958;6.770;2023-04-25T13:32:48;3.63;;;1.40;;
2646;SDS011;1333;50.958;6.770;2023-04-25T13:35:13;5.97;;;3.57;;
2646;SDS011;1333;50.958;6.770;2023-04-25T13:37:40;2.50;;;1.47;;
2646;SDS011;1333;50.958;6.770;2023-04-25T13:40:06;3.17;;;2.60;;
2646;SDS011;1333;50.958;6.770;2023-04-25T13:42:34;4.97;;;3.33;;
2646;SDS011;1333;50.958;6.770;2023-04-25T13:45:01;6.23;;;4.17;;
2646;SDS011;1333;50.958;6.770;2023-04-25T13:47:27;1.40;;;1.30;;
2646;SDS011;1333;50.958;6.770;2023-04-25T13:49:53;1.87;;;1.40;;
2646;SDS011;1333;50.958;6.770;2023-04-25T13:52:19;3.00;;;1.07;;
2646;SDS011;1333;50.958;6.770;2023-04-25T13:54:45;1.67;;;1.57;;
2646;SDS011;1333;50.958;6.770;2023-04-25T13:57:10;1.73;;;1.10;;
2646;SDS011;1333;50.958;6.770;2023-04-25T13:59:36;5.43;;;1.70;;
2646;SDS011;1333;50.958;6.770;2023-04-25T14:02:02;1.90;;;1.40;;
2646;SDS011;1333;50.958;6.770;2023-04-25T14:04:28;1.53;;;1.00;;
2646;SDS011;1333;50.958;6.770;2023-04-25T14:06:54;1.83;;;1.13;;
2646;SDS011;1333;50.958;6.770;2023-04-25T14:09:20;1.93;;;1.30;;
2646;SDS011;1333;50.958;6.770;2023-04-25T14:11:50;2.40;;;1.40;;
2646;SDS011;1333;50.958;6.770;2023-04-25T14:14:19;2.63;;;1.10;;
2646;SDS011;1333;50.958;6.770;2023-04-25T14:16:45;1.30;;;0.90;;
2646;SDS011;1333;50.958;6.770;2023-04-25T14:19:13;4.53;;;0.97;;
2646;SDS011;1333;50.958;6.770;2023-04-25T14:21:42;1.47;;;0.80;;
2646;SDS011;1333;50.958;6.770;2023-04-25T14:24:10;3.67;;;1.93;;
2646;SDS011;1333;50.958;6.770;2023-04-25T14:26:36;1.37;;;1.07;;
2646;SDS011;1333;50.958;6.770;2023-04-25T14:29:02;1.70;;;0.90;;
2646;SDS011;1333;50.958;6.770;2023-04-25T14:31:29;2.53;;;0.80;;
2646;SDS011;1333;50.958;6.770;2023-04-25T14:33:54;2.17;;;1.30;;
2646;SDS011;1333;50.958;6.770;2023-04-25T14:36:20;3.77;;;1.40;;
2646;SDS011;1333;50.958;6.770;2023-04-25T14:38:46;2.27;;;1.17;;
2646;SDS011;1333;50.958;6.770;2023-04-25T14:41:11;1.60;;;0.90;;
2646;SDS011;1333;50.958;6.770;2023-04-25T14:43:37;4.80;;;1.60;;
2646;SDS011;1333;50.958;6.770;2023-04-25T14:46:04;2.57;;;1.00;;
2646;SDS011;1333;50.958;6.770;2023-04-25T14:48:31;2.67;;;1.40;;
2646;SDS011;1333;50.958;6.770;2023-04-25T14:50:57;2.77;;;1.20;;
2646;SDS011;1333;50.958;6.770;2023-04-25T14:53:22;1.60;;;1.23;;
2646;SDS011;1333;50.958;6.770;2023-04-25T14:55:48;2.20;;;1.27;;
2646;SDS011;1333;50.958;6.770;2023-04-25T14:58:14;1.37;;;1.27;;
2646;SDS011;1333;50.958;6.770;2023-04-25T15:00:40;1.37;;;1.03;;
2646;SDS011;1333;50.958;6.770;2023-04-25T15:03:06;2.53;;;1.50;;
2646;SDS011;1333;50.958;6.770;2023-04-25T15:05:32;1.53;;;1.13;;
2646;SDS011;1333;50.958;6.770;2023-04-25T15:07:58;1.33;;;1.10;;
2646;SDS011;1333;50.958;6.770;2023-04-25T15:10:25;2.97;;;1.17;;
2646;SDS011;1333;50.958;6.770;2023-04-25T15:12:50;1.57;;;1.30;;
2646;SDS011;1333;50.958;6.770;2023-04-25T15:15:18;1.63;;;1.20;;
2646;SDS011;1333;50.958;6.770;2023-04-25T15:17:43;3.10;;;1.30;;
2646;SDS011;1333;50.958;6.770;2023-04-25T15:20:12;2.63;;;1.17;;
2646;SDS011;1333;50.958;6.770;2023-04-25T15:22:39;2.40;;;0.93;;